createdAt,value
2022-09-13T00:00:54.065Z,16.90
2022-09-13T00:03:21.925Z,16.80
2022-09-13T00:05:49.433Z,16.70
2022-09-13T00:08:17.236Z,16.60
2022-09-13T00:10:45.373Z,16.60
2022-09-13T00:13:16.273Z,16.60
2022-09-13T00:15:44.877Z,16.50
2022-09-13T00:18:12.005Z,16.50
2022-09-13T00:20:39.375Z,16.40
2022-09-13T00:23:06.256Z,16.50
2022-09-13T00:25:33.337Z,16.50
2022-09-13T00:28:00.372Z,16.40
2022-09-13T00:30:28.986Z,16.30
2022-09-13T00:32:56.538Z,16.30
2022-09-13T00:35:23.819Z,16.40
2022-09-13T00:37:51.549Z,16.50
2022-09-13T00:40:19.207Z,16.40
2022-09-13T00:42:46.603Z,16.30
2022-09-13T00:45:18.517Z,16.30
2022-09-13T00:47:53.192Z,16.30
2022-09-13T00:50:25.951Z,16.30
2022-09-13T00:52:59.024Z,16.40
2022-09-13T00:55:29.600Z,16.30
2022-09-13T00:58:02.853Z,16.30
2022-09-13T01:00:29.955Z,16.20
2022-09-13T01:03:01.764Z,16.30
2022-09-13T01:05:33.276Z,16.20
2022-09-13T01:08:01.278Z,16.00
2022-09-13T01:10:31.605Z,16.10
2022-09-13T01:13:11.096Z,16.10
2022-09-13T01:15:41.693Z,16.20
2022-09-13T01:18:11.174Z,16.10
2022-09-13T01:20:55.091Z,16.10
2022-09-13T01:24:00.743Z,16.10
2022-09-13T01:27:17.454Z,16.00
2022-09-13T01:30:16.357Z,15.90
2022-09-13T01:33:24.491Z,16.00
2022-09-13T01:36:18.354Z,16.00
2022-09-13T01:39:01.833Z,16.10
2022-09-13T01:41:58.661Z,16.10
2022-09-13T01:44:39.737Z,15.90
2022-09-13T01:47:24.773Z,16.00
2022-09-13T01:50:10.712Z,16.00
2022-09-13T01:52:48.248Z,15.90
2022-09-13T01:55:27.443Z,15.70
2022-09-13T01:58:03.216Z,15.80
2022-09-13T02:00:47.289Z,15.80
2022-09-13T02:03:22.548Z,15.80
2022-09-13T02:05:56.786Z,15.70
2022-09-13T02:08:33.837Z,15.80
2022-09-13T02:11:10.279Z,15.70
2022-09-13T02:13:42.879Z,15.80
2022-09-13T02:16:20.726Z,15.80
2022-09-13T02:18:57.750Z,15.90
2022-09-13T02:21:30.210Z,15.90
2022-09-13T02:24:05.228Z,16.00
2022-09-13T02:26:34.917Z,15.90
2022-09-13T02:29:09.439Z,15.90
2022-09-13T02:31:45.179Z,16.00
2022-09-13T02:34:19.192Z,16.00
2022-09-13T02:36:51.595Z,16.00
2022-09-13T02:39:23.494Z,16.00
2022-09-13T02:41:56.769Z,16.00
2022-09-13T02:44:34.335Z,15.90
2022-09-13T02:47:14.601Z,15.90
2022-09-13T02:50:00.315Z,15.70
2022-09-13T02:52:39.757Z,15.70
2022-09-13T02:55:16.813Z,15.80
2022-09-13T02:57:55.507Z,15.80
2022-09-13T03:00:25.802Z,16.00
2022-09-13T03:02:55.404Z,16.00
2022-09-13T03:05:24.367Z,16.00
2022-09-13T03:07:52.558Z,16.10
2022-09-13T03:10:20.433Z,16.00
2022-09-13T03:13:25.940Z,16.00
2022-09-13T03:16:09.864Z,16.00
2022-09-13T03:19:12.417Z,16.00
2022-09-13T03:21:59.946Z,15.90
2022-09-13T03:24:35.986Z,16.00
2022-09-13T03:27:18.971Z,15.90
2022-09-13T03:29:56.107Z,15.80
2022-09-13T03:32:35.235Z,15.80
2022-09-13T03:35:15.005Z,16.00
2022-09-13T03:37:53.624Z,15.90
2022-09-13T03:40:28.427Z,15.70
2022-09-13T03:43:01.975Z,15.70
2022-09-13T03:45:34.260Z,15.70
2022-09-13T03:48:03.311Z,15.70
2022-09-13T03:50:30.702Z,15.80
2022-09-13T03:53:03.787Z,15.70
2022-09-13T03:55:33.001Z,15.80
2022-09-13T03:57:59.899Z,15.80
2022-09-13T04:00:27.550Z,15.80
2022-09-13T04:02:55.445Z,15.70
2022-09-13T04:05:22.690Z,15.60
2022-09-13T04:07:49.655Z,15.60
2022-09-13T04:10:17.901Z,15.70
2022-09-13T04:12:44.776Z,15.80
2022-09-13T04:15:11.699Z,15.80
2022-09-13T04:17:38.629Z,15.70
2022-09-13T04:20:06.602Z,15.70
2022-09-13T04:22:33.502Z,15.60
2022-09-13T04:25:02.528Z,15.60
2022-09-13T04:27:31.349Z,15.70
2022-09-13T04:29:58.274Z,15.50
2022-09-13T04:32:25.202Z,15.50
2022-09-13T04:34:52.261Z,15.50
2022-09-13T04:37:19.110Z,15.40
2022-09-13T04:39:48.927Z,15.40
2022-09-13T04:42:15.912Z,15.40
2022-09-13T04:44:44.780Z,15.50
2022-09-13T04:47:11.775Z,15.60
2022-09-13T04:49:39.312Z,15.70
2022-09-13T04:52:08.649Z,15.60
2022-09-13T04:54:38.569Z,15.50
2022-09-13T04:57:06.276Z,15.50
2022-09-13T04:59:33.902Z,15.50
2022-09-13T05:02:02.288Z,15.50
2022-09-13T05:04:29.256Z,15.50
2022-09-13T05:06:56.150Z,15.60
2022-09-13T05:09:23.310Z,15.70
2022-09-13T05:11:50.268Z,15.70
2022-09-13T05:14:17.585Z,15.70
2022-09-13T05:16:44.652Z,15.70
2022-09-13T05:19:13.447Z,15.70
2022-09-13T05:21:40.452Z,15.70
2022-09-13T05:24:07.957Z,15.80
2022-09-13T05:26:35.562Z,15.90
2022-09-13T05:29:04.022Z,15.90
2022-09-13T05:31:34.707Z,16.00
2022-09-13T05:34:05.175Z,15.80
2022-09-13T05:36:34.135Z,15.70
2022-09-13T05:39:28.362Z,15.80
2022-09-13T05:41:48.585Z,15.80
2022-09-13T05:44:18.462Z,15.90
2022-09-13T05:46:48.528Z,16.00
2022-09-13T05:49:18.566Z,16.10
2022-09-13T05:54:37.121Z,16.10
2022-09-13T05:57:07.127Z,16.10
2022-09-13T05:59:34.086Z,16.20
2022-09-13T06:02:04.149Z,16.20
2022-09-13T06:04:31.120Z,16.10
2022-09-13T06:07:05.459Z,16.20
2022-09-13T06:09:35.274Z,16.20
2022-09-13T06:12:03.739Z,16.30
2022-09-13T06:14:32.388Z,16.40
2022-09-13T06:16:59.325Z,16.50
2022-09-13T06:19:26.292Z,16.50
2022-09-13T06:21:53.287Z,16.40
2022-09-13T06:24:21.546Z,16.50
2022-09-13T06:26:48.461Z,16.50
2022-09-13T06:29:18.576Z,16.40
2022-09-13T06:31:51.636Z,16.50
2022-09-13T06:34:18.829Z,16.50
2022-09-13T06:36:45.828Z,16.50
2022-09-13T06:39:15.985Z,16.60
2022-09-13T06:41:44.352Z,16.60
2022-09-13T06:44:11.385Z,16.70
2022-09-13T06:46:38.508Z,16.70
2022-09-13T06:49:09.808Z,16.60
2022-09-13T06:51:36.947Z,16.60
2022-09-13T06:54:05.023Z,16.70
2022-09-13T06:56:34.673Z,16.80
2022-09-13T06:59:08.468Z,16.80
2022-09-13T07:01:38.580Z,16.80
2022-09-13T07:04:07.652Z,16.80
2022-09-13T07:06:37.725Z,16.80
2022-09-13T07:09:14.023Z,16.90
2022-09-13T07:11:42.405Z,16.90
2022-09-13T07:14:14.446Z,17.00
2022-09-13T07:16:41.665Z,17.00
2022-09-13T07:19:16.546Z,17.00
2022-09-13T07:21:46.948Z,17.00
2022-09-13T07:24:13.876Z,17.00
2022-09-13T07:26:43.268Z,17.00
2022-09-13T07:29:18.906Z,17.10
2022-09-13T07:31:48.446Z,17.00
2022-09-13T07:34:17.766Z,17.10
2022-09-13T07:36:52.398Z,17.10
2022-09-13T07:39:22.614Z,17.10
2022-09-13T07:41:50.823Z,17.10
2022-09-13T07:44:22.812Z,17.10
2022-09-13T07:46:52.859Z,17.10
2022-09-13T07:49:20.280Z,17.10
2022-09-13T07:51:51.023Z,17.20
2022-09-13T07:54:21.330Z,17.20
2022-09-13T07:56:52.229Z,17.30
2022-09-13T07:59:19.568Z,17.20
2022-09-13T08:01:52.066Z,17.30
2022-09-13T08:04:23.131Z,17.40
2022-09-13T08:06:50.167Z,17.40
2022-09-13T08:09:20.822Z,17.50
2022-09-13T08:11:52.906Z,17.60
2022-09-13T08:14:26.957Z,17.60
2022-09-13T08:16:56.986Z,17.70
2022-09-13T08:19:24.066Z,17.80
2022-09-13T08:21:51.180Z,17.80
2022-09-13T08:24:24.729Z,17.80
2022-09-13T08:26:54.887Z,17.90
2022-09-13T08:29:25.500Z,17.90
2022-09-13T08:32:15.830Z,18.00
2022-09-13T08:34:45.590Z,18.00
2022-09-13T08:37:18.663Z,18.00
2022-09-13T08:39:45.729Z,18.00
2022-09-13T08:42:28.370Z,18.00
2022-09-13T08:45:05.401Z,18.00
2022-09-13T08:47:40.589Z,17.90
2022-09-13T08:50:19.114Z,17.90
2022-09-13T08:53:15.996Z,17.90
2022-09-13T08:55:52.972Z,17.80
2022-09-13T08:58:44.148Z,17.80
2022-09-13T09:01:25.709Z,17.70
2022-09-13T09:04:04.403Z,17.60
2022-09-13T09:06:31.578Z,17.60
2022-09-13T09:09:04.557Z,17.60
2022-09-13T09:11:38.118Z,17.60
2022-09-13T09:14:16.166Z,17.60
2022-09-13T09:16:51.455Z,17.60
2022-09-13T09:19:36.622Z,17.50
2022-09-13T09:22:11.691Z,17.50
2022-09-13T09:24:54.979Z,17.50
2022-09-13T09:27:25.819Z,17.60
2022-09-13T09:29:58.329Z,17.60
2022-09-13T09:33:06.924Z,17.50
2022-09-13T09:35:57.211Z,17.60
2022-09-13T09:38:42.694Z,17.60
2022-09-13T09:41:25.630Z,17.50
2022-09-13T09:44:01.568Z,17.50
2022-09-13T09:46:34.680Z,17.50
2022-09-13T09:49:35.670Z,17.60
2022-09-13T09:52:11.428Z,17.60
2022-09-13T09:54:41.530Z,17.60
2022-09-13T09:57:08.804Z,17.50
2022-09-13T09:59:37.197Z,17.50
2022-09-13T10:02:19.320Z,17.60
2022-09-13T10:04:57.631Z,17.70
2022-09-13T10:07:32.694Z,17.70
2022-09-13T10:10:08.640Z,17.80
2022-09-13T10:12:39.426Z,17.80
2022-09-13T10:15:20.359Z,17.90
2022-09-13T10:18:16.766Z,17.90
2022-09-13T10:21:03.829Z,18.10
2022-09-13T10:23:33.309Z,18.10
2022-09-13T10:26:08.415Z,18.10
2022-09-13T10:28:43.976Z,18.10
2022-09-13T10:31:17.342Z,18.20
2022-09-13T10:34:03.510Z,18.30
2022-09-13T10:36:51.615Z,18.40
2022-09-13T10:39:23.138Z,18.40
2022-09-13T10:41:55.800Z,18.50
2022-09-13T10:44:33.974Z,18.40
2022-09-13T10:47:07.840Z,18.40
2022-09-13T10:49:42.821Z,18.40
2022-09-13T10:52:32.864Z,18.40
2022-09-13T10:55:35.856Z,18.30
2022-09-13T10:58:17.842Z,18.40
2022-09-13T11:01:40.532Z,18.50
2022-09-13T11:04:51.187Z,18.50
2022-09-13T11:08:12.910Z,18.70
2022-09-13T11:11:17.698Z,18.80
2022-09-13T11:14:19.150Z,18.80
2022-09-13T11:17:06.230Z,18.80
2022-09-13T11:20:13.211Z,18.80
2022-09-13T11:23:07.695Z,18.80
2022-09-13T11:25:56.997Z,18.80
2022-09-13T11:28:55.548Z,18.70
2022-09-13T11:31:45.772Z,18.80
2022-09-13T11:34:39.266Z,18.80
2022-09-13T11:37:33.027Z,18.80
2022-09-13T11:40:29.108Z,18.90
2022-09-13T11:43:21.778Z,18.90
2022-09-13T11:46:02.112Z,19.00
2022-09-13T11:49:02.246Z,19.00
2022-09-13T11:51:42.534Z,19.00
2022-09-13T11:54:27.574Z,19.10
2022-09-13T11:56:59.623Z,19.10
2022-09-13T11:59:40.704Z,19.10
2022-09-13T12:02:19.244Z,19.20
2022-09-13T12:05:21.132Z,19.30
2022-09-13T12:07:53.910Z,19.30
2022-09-13T12:10:26.412Z,19.30
2022-09-13T12:13:04.582Z,19.30
2022-09-13T12:15:38.310Z,19.30
2022-09-13T12:18:13.197Z,19.30
2022-09-13T12:20:46.764Z,19.40
2022-09-13T12:23:21.146Z,19.50
2022-09-13T12:25:55.149Z,19.50
2022-09-13T12:28:27.486Z,19.50
2022-09-13T12:31:00.842Z,19.50
2022-09-13T12:33:31.173Z,19.60
2022-09-13T12:36:48.182Z,19.60
2022-09-13T12:40:09.688Z,19.60
2022-09-13T12:43:19.341Z,19.70
2022-09-13T12:46:16.419Z,19.70
2022-09-13T12:49:17.955Z,19.70
2022-09-13T12:52:15.522Z,19.70
2022-09-13T12:55:46.210Z,19.70
2022-09-13T12:58:34.485Z,19.70
2022-09-13T13:01:11.158Z,19.80
2022-09-13T13:03:51.210Z,19.80
2022-09-13T13:06:32.854Z,19.80
2022-09-13T13:09:05.134Z,19.80
2022-09-13T13:11:51.498Z,19.80
2022-09-13T13:14:46.963Z,19.90
2022-09-13T13:17:46.613Z,19.90
2022-09-13T13:21:25.137Z,19.90
2022-09-13T13:24:38.551Z,20.00
2022-09-13T13:27:34.992Z,20.00
2022-09-13T13:30:51.306Z,20.00
2022-09-13T13:33:47.131Z,20.10
2022-09-13T13:36:26.501Z,20.10
2022-09-13T13:38:56.734Z,20.10
2022-09-13T13:41:49.278Z,20.10
2022-09-13T13:45:06.564Z,20.20
2022-09-13T13:48:35.403Z,20.20
2022-09-13T13:51:27.710Z,20.20
2022-09-13T13:54:04.431Z,20.20
2022-09-13T13:56:47.193Z,20.20
2022-09-13T13:59:22.788Z,20.20
2022-09-13T14:01:55.822Z,20.20
2022-09-13T14:05:07.501Z,20.20
2022-09-13T14:08:21.828Z,20.20
2022-09-13T14:10:59.179Z,20.20
2022-09-13T14:13:50.158Z,20.20
2022-09-13T14:16:36.935Z,20.20
2022-09-13T14:19:24.098Z,20.20
2022-09-13T14:22:16.483Z,20.20
2022-09-13T14:24:46.466Z,20.10
2022-09-13T14:27:21.188Z,20.10
2022-09-13T14:29:51.950Z,20.20
2022-09-13T14:32:22.428Z,20.20
2022-09-13T14:34:59.927Z,20.20
2022-09-13T14:37:32.349Z,20.20
2022-09-13T14:40:09.405Z,20.10
2022-09-13T14:42:41.383Z,20.10
2022-09-13T14:45:13.805Z,20.10
2022-09-13T14:47:51.356Z,20.10
2022-09-13T14:50:23.869Z,20.10
2022-09-13T14:52:56.337Z,20.10
2022-09-13T14:55:29.589Z,20.10
2022-09-13T14:58:03.368Z,20.10
2022-09-13T15:00:33.800Z,20.20
2022-09-13T15:03:10.457Z,20.20
2022-09-13T15:05:37.483Z,20.20
2022-09-13T15:08:47.311Z,20.30
2022-09-13T15:11:27.055Z,20.20
2022-09-13T15:14:03.442Z,20.20
2022-09-13T15:16:31.882Z,20.20
2022-09-13T15:19:28.943Z,20.20
2022-09-13T15:22:13.262Z,20.20
2022-09-13T15:24:46.735Z,20.10
2022-09-13T15:27:29.315Z,20.10
2022-09-13T15:29:58.660Z,20.10
2022-09-13T15:32:33.599Z,20.10
2022-09-13T15:35:02.454Z,20.10
2022-09-13T15:37:34.578Z,20.10
2022-09-13T15:40:19.535Z,20.20
2022-09-13T15:42:51.662Z,20.20
2022-09-13T15:45:21.142Z,20.20
2022-09-13T15:47:49.198Z,20.20
2022-09-13T15:50:27.381Z,20.20
2022-09-13T15:52:54.902Z,20.20
2022-09-13T15:55:24.358Z,20.20
2022-09-13T15:57:51.513Z,20.20
2022-09-13T16:00:21.875Z,20.20
2022-09-13T16:02:49.623Z,20.20
2022-09-13T16:05:16.950Z,20.20
2022-09-13T16:07:44.644Z,20.10
2022-09-13T16:10:16.036Z,20.10
2022-09-13T16:12:44.715Z,20.20
2022-09-13T16:15:12.927Z,20.20
2022-09-13T16:17:40.908Z,20.20
2022-09-13T16:20:12.204Z,20.20
2022-09-13T16:22:39.104Z,20.20
2022-09-13T16:25:07.527Z,20.20
2022-09-13T16:27:34.503Z,20.10
2022-09-13T16:30:03.390Z,20.20
2022-09-13T16:32:30.291Z,20.20
2022-09-13T16:34:57.726Z,20.10
2022-09-13T16:37:24.874Z,20.10
2022-09-13T16:39:52.259Z,20.10
2022-09-13T16:42:19.936Z,20.10
2022-09-13T16:44:46.843Z,20.00
2022-09-13T16:47:15.120Z,20.00
2022-09-13T16:49:42.383Z,20.00
2022-09-13T16:52:09.672Z,20.00
2022-09-13T16:54:37.365Z,20.00
2022-09-13T16:57:06.354Z,20.00
2022-09-13T16:59:33.622Z,20.00
2022-09-13T17:02:01.291Z,20.00
2022-09-13T17:04:29.667Z,19.90
2022-09-13T17:06:56.694Z,19.90
2022-09-13T17:09:27.395Z,19.90
2022-09-13T17:11:54.540Z,19.90
2022-09-13T17:14:21.916Z,20.00
2022-09-13T17:16:54.215Z,20.00
2022-09-13T17:19:24.996Z,20.00
2022-09-13T17:21:57.325Z,20.10
2022-09-13T17:24:25.054Z,20.10
2022-09-13T17:26:52.087Z,20.00
2022-09-13T17:29:19.644Z,20.00
2022-09-13T17:31:46.875Z,20.00
2022-09-13T17:34:14.466Z,20.00
2022-09-13T17:36:42.255Z,20.00
2022-09-13T17:39:11.019Z,19.90
2022-09-13T17:41:38.272Z,19.80
2022-09-13T17:44:05.898Z,19.80
2022-09-13T17:46:33.046Z,19.80
2022-09-13T17:49:00.369Z,19.80
2022-09-13T17:51:29.508Z,19.90
2022-09-13T17:54:00.068Z,20.00
2022-09-13T17:56:32.085Z,19.90
2022-09-13T17:59:09.861Z,19.80
2022-09-13T18:01:40.121Z,19.70
2022-09-13T18:04:08.501Z,19.80
2022-09-13T18:06:35.706Z,19.70
2022-09-13T18:09:03.248Z,19.60
2022-09-13T18:11:31.562Z,19.60
2022-09-13T18:13:58.751Z,19.50
2022-09-13T18:16:29.316Z,19.50
2022-09-13T18:18:56.801Z,19.50
2022-09-13T18:21:26.257Z,19.50
2022-09-13T18:23:58.280Z,19.40
2022-09-13T18:26:26.828Z,19.40
2022-09-13T18:28:57.133Z,19.50
2022-09-13T18:31:26.247Z,19.40
2022-09-13T18:33:58.278Z,19.40
2022-09-13T18:36:27.348Z,19.40
2022-09-13T18:38:56.359Z,19.40
2022-09-13T18:41:25.990Z,19.30
2022-09-13T18:43:56.387Z,19.30
2022-09-13T18:46:26.236Z,19.40
2022-09-13T18:48:57.217Z,19.40
2022-09-13T18:51:28.001Z,19.30
2022-09-13T18:53:55.808Z,19.30
2022-09-13T18:56:24.343Z,19.20
2022-09-13T18:58:52.982Z,19.30
2022-09-13T19:01:23.646Z,19.30
2022-09-13T19:03:53.381Z,19.30
2022-09-13T19:06:23.458Z,19.30
2022-09-13T19:08:52.175Z,19.30
2022-09-13T19:11:44.738Z,19.40
2022-09-13T19:14:09.895Z,19.40
2022-09-13T19:16:38.303Z,19.40
2022-09-13T19:19:05.301Z,19.30
2022-09-13T19:21:33.597Z,19.30
2022-09-13T19:24:05.467Z,19.30
2022-09-13T19:26:39.034Z,19.30
2022-09-13T19:29:08.802Z,19.10
2022-09-13T19:31:40.097Z,19.10
2022-09-13T19:34:08.139Z,19.00
2022-09-13T19:36:38.156Z,19.00
2022-09-13T19:39:07.193Z,19.00
2022-09-13T19:41:35.335Z,19.00
2022-09-13T19:44:04.282Z,19.10
2022-09-13T19:46:33.766Z,19.10
2022-09-13T19:49:03.395Z,19.10
2022-09-13T19:51:34.033Z,19.10
2022-09-13T19:54:01.968Z,19.20
2022-09-13T19:56:32.615Z,19.20
2022-09-13T19:59:00.992Z,19.20
2022-09-13T20:01:31.531Z,19.20
2022-09-13T20:04:02.640Z,19.20
2022-09-13T20:06:36.090Z,19.20
2022-09-13T20:09:04.253Z,19.10
2022-09-13T20:11:32.086Z,19.10
2022-09-13T20:14:00.472Z,19.10
2022-09-13T20:16:31.101Z,19.00
2022-09-13T20:18:58.739Z,18.80
2022-09-13T20:21:28.765Z,18.80
2022-09-13T20:23:58.859Z,18.80
2022-09-13T20:26:27.368Z,18.90
2022-09-13T20:28:56.964Z,19.00
2022-09-13T20:31:25.597Z,19.10
2022-09-13T20:33:55.483Z,19.10
2022-09-13T20:36:23.517Z,19.10
2022-09-13T20:38:52.821Z,19.20
2022-09-13T20:41:20.932Z,19.10
2022-09-13T20:43:48.857Z,19.00
2022-09-13T20:46:17.252Z,19.00
2022-09-13T20:48:44.760Z,18.90
2022-09-13T20:51:14.459Z,18.90
2022-09-13T20:53:41.536Z,19.00
2022-09-13T20:56:13.406Z,19.00
2022-09-13T20:58:42.567Z,19.10
2022-09-13T21:01:13.890Z,19.00
2022-09-13T21:03:42.502Z,18.90
2022-09-13T21:06:10.577Z,18.90
2022-09-13T21:08:43.839Z,18.90
2022-09-13T21:11:14.982Z,19.00
2022-09-13T21:13:44.853Z,19.10
2022-09-13T21:16:14.472Z,19.10
2022-09-13T21:18:42.219Z,19.10
2022-09-13T21:21:13.775Z,19.00
2022-09-13T21:23:41.828Z,19.00
2022-09-13T21:26:12.897Z,18.90
2022-09-13T21:28:42.719Z,19.00
2022-09-13T21:31:14.527Z,18.90
2022-09-13T21:33:45.119Z,18.90
2022-09-13T21:36:12.859Z,18.90
2022-09-13T21:38:40.620Z,18.80
2022-09-13T21:41:13.381Z,18.90
2022-09-13T21:43:41.737Z,18.80
2022-09-13T21:46:16.711Z,18.80
2022-09-13T21:48:50.810Z,18.80
2022-09-13T21:51:21.120Z,18.80
2022-09-13T21:53:50.027Z,18.80
2022-09-13T21:56:20.951Z,18.80
2022-09-13T21:58:50.190Z,18.80
2022-09-13T22:01:20.049Z,18.80
2022-09-13T22:03:47.481Z,18.80
2022-09-13T22:06:15.664Z,18.80
2022-09-13T22:08:46.606Z,18.80
2022-09-13T22:11:16.405Z,18.90
2022-09-13T22:13:46.018Z,19.00
2022-09-13T22:16:17.794Z,18.90
2022-09-13T22:18:45.289Z,18.80
2022-09-13T22:21:15.502Z,18.70
2022-09-13T22:23:43.466Z,18.80
2022-09-13T22:26:13.459Z,18.80
2022-09-13T22:28:40.616Z,18.80
2022-09-13T22:31:12.379Z,18.80
2022-09-13T22:33:40.005Z,18.80
2022-09-13T22:36:09.936Z,18.90
2022-09-13T22:38:38.836Z,18.90
2022-09-13T22:41:09.463Z,18.90
2022-09-13T22:43:36.488Z,18.90
2022-09-13T22:46:06.744Z,18.80
2022-09-13T22:48:35.322Z,18.80
2022-09-13T22:51:04.239Z,18.80
2022-09-13T22:53:34.277Z,18.90
2022-09-13T22:56:03.969Z,18.90
2022-09-13T22:58:31.531Z,18.90
2022-09-13T23:01:03.754Z,18.90
2022-09-13T23:03:31.142Z,18.90
2022-09-13T23:05:59.475Z,18.90
2022-09-13T23:08:26.775Z,18.80
2022-09-13T23:10:53.761Z,18.80
2022-09-13T23:13:20.928Z,18.80
2022-09-13T23:15:48.125Z,18.80
2022-09-13T23:18:15.058Z,18.70
2022-09-13T23:20:43.258Z,18.70
2022-09-13T23:23:12.062Z,18.60
2022-09-13T23:25:39.041Z,18.60
2022-09-13T23:28:05.995Z,18.60
2022-09-13T23:30:33.003Z,18.60
2022-09-13T23:33:00.328Z,18.60
2022-09-13T23:35:27.350Z,18.50
2022-09-13T23:37:54.716Z,18.60
2022-09-13T23:40:23.082Z,18.60
2022-09-13T23:42:50.013Z,18.50
2022-09-13T23:45:17.116Z,18.50
2022-09-13T23:47:44.096Z,18.50
2022-09-13T23:50:11.746Z,18.60
2022-09-13T23:52:38.723Z,18.70
2022-09-13T23:55:07.227Z,18.80
2022-09-13T23:57:35.528Z,18.80
